sensor_id;sensor_type;location;lat;lon;timestamp;temperature;humidity
53802;DHT22;39709;53.334;6.534;2023-09-12T00:00:34;19.40;99.90
53802;DHT22;39709;53.334;6.534;2023-09-12T00:03:00;19.40;99.90
53802;DHT22;39709;53.334;6.534;2023-09-12T00:05:26;19.30;99.90
53802;DHT22;39709;53.334;6.534;2023-09-12T00:07:51;19.30;99.90
53802;DHT22;39709;53.334;6.534;2023-09-12T00:10:17;19.30;99.90
53802;DHT22;39709;53.334;6.534;2023-09-12T00:12:43;19.30;99.90
53802;DHT22;39709;53.334;6.534;2023-09-12T00:15:08;19.30;99.90
53802;DHT22;39709;53.334;6.534;2023-09-12T00:17:34;19.20;99.90
53802;DHT22;39709;53.334;6.534;2023-09-12T00:20:00;19.10;99.90
53802;DHT22;39709;53.334;6.534;2023-09-12T00:22:25;19.20;99.90
53802;DHT22;39709;53.334;6.534;2023-09-12T00:24:51;19.00;99.90
53802;DHT22;39709;53.334;6.534;2023-09-12T00:27:16;19.00;99.90
53802;DHT22;39709;53.334;6.534;2023-09-12T00:29:42;19.00;99.90
53802;DHT22;39709;53.334;6.534;2023-09-12T00:32:07;19.10;99.90
53802;DHT22;39709;53.334;6.534;2023-09-12T00:34:33;19.00;99.90
53802;DHT22;39709;53.334;6.534;2023-09-12T00:36:58;19.00;99.90
53802;DHT22;39709;53.334;6.534;2023-09-12T00:39:24;19.20;99.90
53802;DHT22;39709;53.334;6.534;2023-09-12T00:41:49;19.10;99.90
53802;DHT22;39709;53.334;6.534;2023-09-12T00:44:15;19.10;99.90
53802;DHT22;39709;53.334;6.534;2023-09-12T00:46:41;19.00;99.90
53802;DHT22;39709;53.334;6.534;2023-09-12T00:49:08;19.00;99.90
53802;DHT22;39709;53.334;6.534;2023-09-12T00:51:34;18.90;99.90
53802;DHT22;39709;53.334;6.534;2023-09-12T00:54:00;18.80;99.90
53802;DHT22;39709;53.334;6.534;2023-09-12T00:56:26;19.00;99.90
53802;DHT22;39709;53.334;6.534;2023-09-12T00:58:51;19.10;99.90
53802;DHT22;39709;53.334;6.534;2023-09-12T01:01:18;19.00;99.90
53802;DHT22;39709;53.334;6.534;2023-09-12T01:03:44;18.90;99.90
53802;DHT22;39709;53.334;6.534;2023-09-12T01:06:09;18.90;99.90
53802;DHT22;39709;53.334;6.534;2023-09-12T01:08:36;18.80;99.90
53802;DHT22;39709;53.334;6.534;2023-09-12T01:11:04;18.90;99.90
53802;DHT22;39709;53.334;6.534;2023-09-12T01:13:30;18.80;99.90
53802;DHT22;39709;53.334;6.534;2023-09-12T01:15:55;18.80;99.90
53802;DHT22;39709;53.334;6.534;2023-09-12T01:18:21;18.80;99.90
53802;DHT22;39709;53.334;6.534;2023-09-12T01:23:58;18.60;99.90
53802;DHT22;39709;53.334;6.534;2023-09-12T01:26:20;18.70;99.90
53802;DHT22;39709;53.334;6.534;2023-09-12T01:28:49;18.80;99.90
53802;DHT22;39709;53.334;6.534;2023-09-12T01:31:16;18.80;99.90
53802;DHT22;39709;53.334;6.534;2023-09-12T01:33:42;18.80;99.90
53802;DHT22;39709;53.334;6.534;2023-09-12T01:36:10;18.60;99.90
53802;DHT22;39709;53.334;6.534;2023-09-12T01:38:35;18.60;99.90
53802;DHT22;39709;53.334;6.534;2023-09-12T01:41:01;18.70;99.90
53802;DHT22;39709;53.334;6.534;2023-09-12T01:43:27;18.70;99.90
53802;DHT22;39709;53.334;6.534;2023-09-12T01:45:54;18.50;99.90
53802;DHT22;39709;53.334;6.534;2023-09-12T01:48:25;18.60;99.90
53802;DHT22;39709;53.334;6.534;2023-09-12T01:50:52;18.60;99.90
53802;DHT22;39709;53.334;6.534;2023-09-12T01:53:18;18.60;99.90
53802;DHT22;39709;53.334;6.534;2023-09-12T01:55:44;18.50;99.90
53802;DHT22;39709;53.334;6.534;2023-09-12T01:58:13;18.40;99.90
53802;DHT22;39709;53.334;6.534;2023-09-12T02:00:39;18.50;99.90
53802;DHT22;39709;53.334;6.534;2023-09-12T02:03:05;18.40;99.90
53802;DHT22;39709;53.334;6.534;2023-09-12T02:05:31;18.40;99.90
53802;DHT22;39709;53.334;6.534;2023-09-12T02:07:56;18.40;99.90
53802;DHT22;39709;53.334;6.534;2023-09-12T02:10:22;18.30;99.90
53802;DHT22;39709;53.334;6.534;2023-09-12T02:12:48;18.30;99.90
53802;DHT22;39709;53.334;6.534;2023-09-12T02:15:13;18.20;99.90
53802;DHT22;39709;53.334;6.534;2023-09-12T02:17:40;18.10;99.90
53802;DHT22;39709;53.334;6.534;2023-09-12T02:20:09;18.20;99.90
53802;DHT22;39709;53.334;6.534;2023-09-12T02:22:35;18.10;99.90
53802;DHT22;39709;53.334;6.534;2023-09-12T02:25:01;17.90;99.90
53802;DHT22;39709;53.334;6.534;2023-09-12T02:27:27;17.90;99.90
53802;DHT22;39709;53.334;6.534;2023-09-12T02:29:52;18.00;99.90
53802;DHT22;39709;53.334;6.534;2023-09-12T02:32:18;17.80;99.90
53802;DHT22;39709;53.334;6.534;2023-09-12T02:34:43;17.80;99.90
53802;DHT22;39709;53.334;6.534;2023-09-12T02:37:09;17.90;99.90
53802;DHT22;39709;53.334;6.534;2023-09-12T02:39:34;17.90;99.90
53802;DHT22;39709;53.334;6.534;2023-09-12T02:42:00;17.90;99.90
53802;DHT22;39709;53.334;6.534;2023-09-12T02:44:25;17.70;99.90
53802;DHT22;39709;53.334;6.534;2023-09-12T02:46:51;17.70;99.90
53802;DHT22;39709;53.334;6.534;2023-09-12T02:49:17;17.60;99.90
53802;DHT22;39709;53.334;6.534;2023-09-12T02:51:42;17.60;99.90
53802;DHT22;39709;53.334;6.534;2023-09-12T02:54:08;17.80;99.90
53802;DHT22;39709;53.334;6.534;2023-09-12T02:56:33;17.70;99.90
53802;DHT22;39709;53.334;6.534;2023-09-12T02:58:59;17.60;99.90
53802;DHT22;39709;53.334;6.534;2023-09-12T03:01:24;17.50;99.90
53802;DHT22;39709;53.334;6.534;2023-09-12T03:03:53;17.80;99.90
53802;DHT22;39709;53.334;6.534;2023-09-12T03:06:18;17.70;99.90
53802;DHT22;39709;53.334;6.534;2023-09-12T03:08:44;17.50;99.90
53802;DHT22;39709;53.334;6.534;2023-09-12T03:11:10;17.50;99.90
53802;DHT22;39709;53.334;6.534;2023-09-12T03:13:40;17.60;99.90
53802;DHT22;39709;53.334;6.534;2023-09-12T03:16:15;17.40;99.90
53802;DHT22;39709;53.334;6.534;2023-09-12T03:18:40;17.70;99.90
53802;DHT22;39709;53.334;6.534;2023-09-12T03:21:06;17.50;99.90
53802;DHT22;39709;53.334;6.534;2023-09-12T03:23:31;17.70;99.90
53802;DHT22;39709;53.334;6.534;2023-09-12T03:26:03;17.50;99.90
53802;DHT22;39709;53.334;6.534;2023-09-12T03:28:29;17.60;99.90
53802;DHT22;39709;53.334;6.534;2023-09-12T03:31:02;17.40;99.90
53802;DHT22;39709;53.334;6.534;2023-09-12T03:33:28;17.50;99.90
53802;DHT22;39709;53.334;6.534;2023-09-12T03:35:54;17.20;99.90
53802;DHT22;39709;53.334;6.534;2023-09-12T03:38:19;17.20;99.90
53802;DHT22;39709;53.334;6.534;2023-09-12T03:40:45;17.30;99.90
53802;DHT22;39709;53.334;6.534;2023-09-12T03:43:10;17.20;99.90
53802;DHT22;39709;53.334;6.534;2023-09-12T03:45:36;17.40;99.90
53802;DHT22;39709;53.334;6.534;2023-09-12T03:48:02;17.20;99.90
53802;DHT22;39709;53.334;6.534;2023-09-12T03:50:28;17.10;99.90
53802;DHT22;39709;53.334;6.534;2023-09-12T03:52:54;17.20;99.90
53802;DHT22;39709;53.334;6.534;2023-09-12T03:55:19;17.30;99.90
53802;DHT22;39709;53.334;6.534;2023-09-12T03:57:45;17.30;99.90
53802;DHT22;39709;53.334;6.534;2023-09-12T04:00:10;17.10;99.90
53802;DHT22;39709;53.334;6.534;2023-09-12T04:02:36;17.20;99.90
53802;DHT22;39709;53.334;6.534;2023-09-12T04:05:02;17.10;99.90
53802;DHT22;39709;53.334;6.534;2023-09-12T04:07:27;17.30;99.90
53802;DHT22;39709;53.334;6.534;2023-09-12T04:09:53;17.30;99.90
53802;DHT22;39709;53.334;6.534;2023-09-12T04:12:18;17.30;99.90
53802;DHT22;39709;53.334;6.534;2023-09-12T04:14:44;17.30;99.90
53802;DHT22;39709;53.334;6.534;2023-09-12T04:17:09;17.10;99.90
53802;DHT22;39709;53.334;6.534;2023-09-12T04:19:35;17.00;99.90
53802;DHT22;39709;53.334;6.534;2023-09-12T04:22:01;17.00;99.90
53802;DHT22;39709;53.334;6.534;2023-09-12T04:24:27;17.00;99.90
53802;DHT22;39709;53.334;6.534;2023-09-12T04:26:53;16.90;99.90
53802;DHT22;39709;53.334;6.534;2023-09-12T04:29:19;17.20;99.90
53802;DHT22;39709;53.334;6.534;2023-09-12T04:31:44;16.90;99.90
53802;DHT22;39709;53.334;6.534;2023-09-12T04:34:10;16.90;99.90
53802;DHT22;39709;53.334;6.534;2023-09-12T04:36:35;17.00;99.90
53802;DHT22;39709;53.334;6.534;2023-09-12T04:39:01;17.00;99.90
53802;DHT22;39709;53.334;6.534;2023-09-12T04:41:27;17.00;99.90
53802;DHT22;39709;53.334;6.534;2023-09-12T04:43:52;17.00;99.90
53802;DHT22;39709;53.334;6.534;2023-09-12T04:46:18;17.00;99.90
53802;DHT22;39709;53.334;6.534;2023-09-12T04:48:43;16.90;99.90
53802;DHT22;39709;53.334;6.534;2023-09-12T04:51:09;16.80;99.90
53802;DHT22;39709;53.334;6.534;2023-09-12T04:53:34;16.70;99.90
53802;DHT22;39709;53.334;6.534;2023-09-12T04:56:01;16.80;99.90
53802;DHT22;39709;53.334;6.534;2023-09-12T04:58:27;17.10;99.90
53802;DHT22;39709;53.334;6.534;2023-09-12T05:00:53;17.00;99.90
53802;DHT22;39709;53.334;6.534;2023-09-12T05:03:19;17.00;99.90
53802;DHT22;39709;53.334;6.534;2023-09-12T05:05:45;17.10;99.90
53802;DHT22;39709;53.334;6.534;2023-09-12T05:08:10;16.80;99.90
53802;DHT22;39709;53.334;6.534;2023-09-12T05:10:37;17.00;99.90
53802;DHT22;39709;53.334;6.534;2023-09-12T05:13:04;17.00;99.90
53802;DHT22;39709;53.334;6.534;2023-09-12T05:15:30;16.80;99.90
53802;DHT22;39709;53.334;6.534;2023-09-12T05:17:55;16.90;99.90
53802;DHT22;39709;53.334;6.534;2023-09-12T05:20:21;16.90;99.90
53802;DHT22;39709;53.334;6.534;2023-09-12T05:22:46;17.10;99.90
53802;DHT22;39709;53.334;6.534;2023-09-12T05:25:12;16.90;99.90
53802;DHT22;39709;53.334;6.534;2023-09-12T05:27:38;16.80;99.90
53802;DHT22;39709;53.334;6.534;2023-09-12T05:30:03;17.20;99.90
53802;DHT22;39709;53.334;6.534;2023-09-12T05:32:29;17.10;99.90
53802;DHT22;39709;53.334;6.534;2023-09-12T05:34:54;17.00;99.90
53802;DHT22;39709;53.334;6.534;2023-09-12T05:37:20;16.90;99.90
53802;DHT22;39709;53.334;6.534;2023-09-12T05:39:46;17.10;99.90
53802;DHT22;39709;53.334;6.534;2023-09-12T05:42:12;17.10;99.90
53802;DHT22;39709;53.334;6.534;2023-09-12T05:44:37;17.30;99.90
53802;DHT22;39709;53.334;6.534;2023-09-12T05:47:03;17.00;99.90
53802;DHT22;39709;53.334;6.534;2023-09-12T05:49:28;17.10;99.90
53802;DHT22;39709;53.334;6.534;2023-09-12T05:51:54;17.10;99.90
53802;DHT22;39709;53.334;6.534;2023-09-12T05:54:20;17.00;99.90
53802;DHT22;39709;53.334;6.534;2023-09-12T05:56:45;17.30;99.90
53802;DHT22;39709;53.334;6.534;2023-09-12T05:59:14;17.30;99.90
53802;DHT22;39709;53.334;6.534;2023-09-12T06:01:39;17.10;99.90
53802;DHT22;39709;53.334;6.534;2023-09-12T06:04:06;17.30;99.90
53802;DHT22;39709;53.334;6.534;2023-09-12T06:06:31;16.90;99.90
53802;DHT22;39709;53.334;6.534;2023-09-12T06:08:57;17.20;99.90
53802;DHT22;39709;53.334;6.534;2023-09-12T06:11:23;16.90;99.90
53802;DHT22;39709;53.334;6.534;2023-09-12T06:13:49;17.20;99.90
53802;DHT22;39709;53.334;6.534;2023-09-12T06:16:15;17.10;99.90
53802;DHT22;39709;53.334;6.534;2023-09-12T06:18:40;17.30;99.90
53802;DHT22;39709;53.334;6.534;2023-09-12T06:21:06;17.10;99.90
53802;DHT22;39709;53.334;6.534;2023-09-12T06:23:34;17.30;99.90
53802;DHT22;39709;53.334;6.534;2023-09-12T06:25:59;17.20;99.90
53802;DHT22;39709;53.334;6.534;2023-09-12T06:28:29;17.20;99.90
53802;DHT22;39709;53.334;6.534;2023-09-12T06:30:55;17.40;99.90
53802;DHT22;39709;53.334;6.534;2023-09-12T06:33:22;17.40;99.90
53802;DHT22;39709;53.334;6.534;2023-09-12T06:35:50;17.30;99.90
53802;DHT22;39709;53.334;6.534;2023-09-12T06:38:18;17.60;99.90
53802;DHT22;39709;53.334;6.534;2023-09-12T06:40:44;17.60;99.90
53802;DHT22;39709;53.334;6.534;2023-09-12T06:43:09;17.40;99.90
53802;DHT22;39709;53.334;6.534;2023-09-12T06:45:35;17.70;99.90
53802;DHT22;39709;53.334;6.534;2023-09-12T06:48:03;17.70;99.90
53802;DHT22;39709;53.334;6.534;2023-09-12T06:50:29;17.70;99.90
53802;DHT22;39709;53.334;6.534;2023-09-12T06:52:54;17.70;99.90
53802;DHT22;39709;53.334;6.534;2023-09-12T06:55:20;17.80;99.90
53802;DHT22;39709;53.334;6.534;2023-09-12T06:57:45;17.80;99.90
53802;DHT22;39709;53.334;6.534;2023-09-12T07:00:12;18.00;99.90
53802;DHT22;39709;53.334;6.534;2023-09-12T07:02:37;18.00;99.90
53802;DHT22;39709;53.334;6.534;2023-09-12T07:05:03;18.30;99.90
53802;DHT22;39709;53.334;6.534;2023-09-12T07:07:30;18.10;99.90
53802;DHT22;39709;53.334;6.534;2023-09-12T07:09:56;18.10;99.90
53802;DHT22;39709;53.334;6.534;2023-09-12T07:12:21;18.30;99.90
53802;DHT22;39709;53.334;6.534;2023-09-12T07:14:47;18.60;99.90
53802;DHT22;39709;53.334;6.534;2023-09-12T07:17:14;18.30;99.90
53802;DHT22;39709;53.334;6.534;2023-09-12T07:19:39;18.70;99.90
53802;DHT22;39709;53.334;6.534;2023-09-12T07:22:05;18.60;99.90
53802;DHT22;39709;53.334;6.534;2023-09-12T07:24:31;18.70;99.90
53802;DHT22;39709;53.334;6.534;2023-09-12T07:26:56;18.70;99.90
53802;DHT22;39709;53.334;6.534;2023-09-12T07:29:23;18.70;99.90
53802;DHT22;39709;53.334;6.534;2023-09-12T07:31:51;18.70;99.90
53802;DHT22;39709;53.334;6.534;2023-09-12T07:34:17;18.60;99.90
53802;DHT22;39709;53.334;6.534;2023-09-12T07:36:42;18.70;99.90
53802;DHT22;39709;53.334;6.534;2023-09-12T07:39:08;18.80;99.90
53802;DHT22;39709;53.334;6.534;2023-09-12T07:41:34;18.80;99.90
53802;DHT22;39709;53.334;6.534;2023-09-12T07:44:00;18.80;99.90
53802;DHT22;39709;53.334;6.534;2023-09-12T07:46:27;18.80;99.90
53802;DHT22;39709;53.334;6.534;2023-09-12T07:48:52;18.80;99.90
53802;DHT22;39709;53.334;6.534;2023-09-12T07:51:18;18.90;99.90
53802;DHT22;39709;53.334;6.534;2023-09-12T07:53:44;18.80;99.90
53802;DHT22;39709;53.334;6.534;2023-09-12T07:56:09;18.90;99.90
53802;DHT22;39709;53.334;6.534;2023-09-12T07:58:38;18.80;99.90
53802;DHT22;39709;53.334;6.534;2023-09-12T08:01:07;18.80;99.90
53802;DHT22;39709;53.334;6.534;2023-09-12T08:03:33;18.70;99.90
53802;DHT22;39709;53.334;6.534;2023-09-12T08:06:00;18.90;99.90
53802;DHT22;39709;53.334;6.534;2023-09-12T08:08:25;18.90;99.90
53802;DHT22;39709;53.334;6.534;2023-09-12T08:10:51;19.00;99.90
53802;DHT22;39709;53.334;6.534;2023-09-12T08:13:17;19.10;99.90
53802;DHT22;39709;53.334;6.534;2023-09-12T08:15:42;19.10;99.90
53802;DHT22;39709;53.334;6.534;2023-09-12T08:18:08;19.10;99.90
53802;DHT22;39709;53.334;6.534;2023-09-12T08:20:33;19.30;99.90
53802;DHT22;39709;53.334;6.534;2023-09-12T08:22:59;19.40;99.90
53802;DHT22;39709;53.334;6.534;2023-09-12T08:25:24;19.40;99.90
53802;DHT22;39709;53.334;6.534;2023-09-12T08:27:50;19.40;99.90
53802;DHT22;39709;53.334;6.534;2023-09-12T08:30:16;19.50;99.90
53802;DHT22;39709;53.334;6.534;2023-09-12T08:32:42;19.50;99.90
53802;DHT22;39709;53.334;6.534;2023-09-12T08:35:11;19.40;99.90
53802;DHT22;39709;53.334;6.534;2023-09-12T08:37:38;19.60;99.90
53802;DHT22;39709;53.334;6.534;2023-09-12T08:40:05;19.70;99.90
53802;DHT22;39709;53.334;6.534;2023-09-12T08:42:33;19.70;99.90
53802;DHT22;39709;53.334;6.534;2023-09-12T08:45:01;19.70;99.90
53802;DHT22;39709;53.334;6.534;2023-09-12T08:47:26;19.90;99.90
53802;DHT22;39709;53.334;6.534;2023-09-12T08:49:52;20.00;99.90
53802;DHT22;39709;53.334;6.534;2023-09-12T08:52:18;20.10;99.90
53802;DHT22;39709;53.334;6.534;2023-09-12T08:54:43;20.00;99.90
53802;DHT22;39709;53.334;6.534;2023-09-12T08:57:09;20.10;99.90
53802;DHT22;39709;53.334;6.534;2023-09-12T08:59:36;20.20;99.90
53802;DHT22;39709;53.334;6.534;2023-09-12T09:02:02;20.30;99.90
53802;DHT22;39709;53.334;6.534;2023-09-12T09:04:29;20.40;99.90
53802;DHT22;39709;53.334;6.534;2023-09-12T09:06:56;20.40;99.90
53802;DHT22;39709;53.334;6.534;2023-09-12T09:09:23;20.50;99.90
53802;DHT22;39709;53.334;6.534;2023-09-12T09:11:49;20.60;99.90
53802;DHT22;39709;53.334;6.534;2023-09-12T09:14:15;20.60;99.90
53802;DHT22;39709;53.334;6.534;2023-09-12T09:16:41;20.60;99.90
53802;DHT22;39709;53.334;6.534;2023-09-12T09:19:06;20.50;99.90
53802;DHT22;39709;53.334;6.534;2023-09-12T09:21:35;20.60;99.90
53802;DHT22;39709;53.334;6.534;2023-09-12T09:24:03;20.60;99.90
53802;DHT22;39709;53.334;6.534;2023-09-12T09:29:13;20.60;99.90
53802;DHT22;39709;53.334;6.534;2023-09-12T09:31:40;20.60;99.90
53802;DHT22;39709;53.334;6.534;2023-09-12T09:34:10;20.80;99.90
53802;DHT22;39709;53.334;6.534;2023-09-12T09:36:35;20.90;99.90
53802;DHT22;39709;53.334;6.534;2023-09-12T09:39:01;21.00;99.90
53802;DHT22;39709;53.334;6.534;2023-09-12T09:41:29;21.00;99.90
53802;DHT22;39709;53.334;6.534;2023-09-12T09:43:56;20.90;99.90
53802;DHT22;39709;53.334;6.534;2023-09-12T09:46:21;20.90;99.90
53802;DHT22;39709;53.334;6.534;2023-09-12T09:48:50;21.00;99.90
53802;DHT22;39709;53.334;6.534;2023-09-12T09:51:16;21.10;99.90
53802;DHT22;39709;53.334;6.534;2023-09-12T09:53:42;21.10;99.90
53802;DHT22;39709;53.334;6.534;2023-09-12T09:58:36;21.30;99.90
53802;DHT22;39709;53.334;6.534;2023-09-12T10:01:02;21.50;99.90
53802;DHT22;39709;53.334;6.534;2023-09-12T10:03:30;21.70;99.90
53802;DHT22;39709;53.334;6.534;2023-09-12T10:05:57;21.90;99.90
53802;DHT22;39709;53.334;6.534;2023-09-12T10:08:25;22.10;99.90
53802;DHT22;39709;53.334;6.534;2023-09-12T10:10:51;22.30;99.90
53802;DHT22;39709;53.334;6.534;2023-09-12T10:13:17;22.60;99.90
53802;DHT22;39709;53.334;6.534;2023-09-12T10:15:44;22.50;99.90
53802;DHT22;39709;53.334;6.534;2023-09-12T10:18:11;22.70;99.90
53802;DHT22;39709;53.334;6.534;2023-09-12T10:20:50;22.60;99.90
53802;DHT22;39709;53.334;6.534;2023-09-12T10:23:39;22.60;99.90
53802;DHT22;39709;53.334;6.534;2023-09-12T10:26:08;22.60;99.90
53802;DHT22;39709;53.334;6.534;2023-09-12T10:28:34;22.70;99.90
53802;DHT22;39709;53.334;6.534;2023-09-12T10:31:00;22.50;99.90
53802;DHT22;39709;53.334;6.534;2023-09-12T10:33:27;22.50;99.90
53802;DHT22;39709;53.334;6.534;2023-09-12T10:35:57;22.40;99.90
53802;DHT22;39709;53.334;6.534;2023-09-12T10:38:23;22.60;99.90
53802;DHT22;39709;53.334;6.534;2023-09-12T10:40:51;22.80;99.90
53802;DHT22;39709;53.334;6.534;2023-09-12T10:43:18;22.90;99.90
53802;DHT22;39709;53.334;6.534;2023-09-12T10:45:44;22.90;99.90
53802;DHT22;39709;53.334;6.534;2023-09-12T10:48:10;23.10;99.90
53802;DHT22;39709;53.334;6.534;2023-09-12T10:50:37;23.10;99.90
53802;DHT22;39709;53.334;6.534;2023-09-12T10:53:13;23.20;99.90
53802;DHT22;39709;53.334;6.534;2023-09-12T10:55:39;23.20;99.90
53802;DHT22;39709;53.334;6.534;2023-09-12T10:58:07;23.30;99.90
53802;DHT22;39709;53.334;6.534;2023-09-12T11:00:32;23.10;99.90
53802;DHT22;39709;53.334;6.534;2023-09-12T11:02:59;23.20;99.90
53802;DHT22;39709;53.334;6.534;2023-09-12T11:07:58;23.30;99.90
53802;DHT22;39709;53.334;6.534;2023-09-12T11:10:24;23.40;99.90
53802;DHT22;39709;53.334;6.534;2023-09-12T11:12:51;23.40;99.90
53802;DHT22;39709;53.334;6.534;2023-09-12T11:15:17;23.40;99.90
53802;DHT22;39709;53.334;6.534;2023-09-12T11:17:44;23.40;99.90
53802;DHT22;39709;53.334;6.534;2023-09-12T11:20:11;23.50;99.90
53802;DHT22;39709;53.334;6.534;2023-09-12T11:28:01;23.70;99.90
53802;DHT22;39709;53.334;6.534;2023-09-12T11:30:28;23.70;99.90
53802;DHT22;39709;53.334;6.534;2023-09-12T11:32:57;23.70;99.90
53802;DHT22;39709;53.334;6.534;2023-09-12T11:35:24;23.70;99.90
53802;DHT22;39709;53.334;6.534;2023-09-12T11:37:50;23.60;99.90
53802;DHT22;39709;53.334;6.534;2023-09-12T11:40:16;23.80;99.90
53802;DHT22;39709;53.334;6.534;2023-09-12T11:42:43;23.70;99.90
53802;DHT22;39709;53.334;6.534;2023-09-12T11:45:09;23.50;99.90
53802;DHT22;39709;53.334;6.534;2023-09-12T11:47:39;23.40;99.90
53802;DHT22;39709;53.334;6.534;2023-09-12T11:50:05;23.40;99.90
53802;DHT22;39709;53.334;6.534;2023-09-12T11:52:30;23.30;99.90
53802;DHT22;39709;53.334;6.534;2023-09-12T11:54:56;23.30;99.90
53802;DHT22;39709;53.334;6.534;2023-09-12T11:57:21;23.30;99.90
53802;DHT22;39709;53.334;6.534;2023-09-12T11:59:48;23.10;99.90
53802;DHT22;39709;53.334;6.534;2023-09-12T12:02:14;22.70;99.90
53802;DHT22;39709;53.334;6.534;2023-09-12T12:04:40;22.00;99.90
53802;DHT22;39709;53.334;6.534;2023-09-12T12:07:06;21.80;99.90
53802;DHT22;39709;53.334;6.534;2023-09-12T12:09:32;21.70;99.90
53802;DHT22;39709;53.334;6.534;2023-09-12T12:12:14;21.40;99.90
53802;DHT22;39709;53.334;6.534;2023-09-12T12:14:40;21.00;99.90
53802;DHT22;39709;53.334;6.534;2023-09-12T12:17:07;20.60;99.90
53802;DHT22;39709;53.334;6.534;2023-09-12T12:19:34;20.50;99.90
53802;DHT22;39709;53.334;6.534;2023-09-12T12:22:00;20.60;99.90
53802;DHT22;39709;53.334;6.534;2023-09-12T12:24:25;20.70;99.90
53802;DHT22;39709;53.334;6.534;2023-09-12T12:26:51;21.00;99.90
53802;DHT22;39709;53.334;6.534;2023-09-12T12:29:18;21.20;99.90
53802;DHT22;39709;53.334;6.534;2023-09-12T12:31:44;21.30;99.90
53802;DHT22;39709;53.334;6.534;2023-09-12T12:34:09;21.30;99.90
53802;DHT22;39709;53.334;6.534;2023-09-12T12:36:40;21.50;99.90
53802;DHT22;39709;53.334;6.534;2023-09-12T12:39:06;21.40;99.90
53802;DHT22;39709;53.334;6.534;2023-09-12T12:41:35;21.30;99.90
53802;DHT22;39709;53.334;6.534;2023-09-12T12:44:01;21.30;99.90
53802;DHT22;39709;53.334;6.534;2023-09-12T12:46:27;21.50;99.90
53802;DHT22;39709;53.334;6.534;2023-09-12T12:48:54;21.70;99.90
53802;DHT22;39709;53.334;6.534;2023-09-12T12:51:21;21.80;99.90
53802;DHT22;39709;53.334;6.534;2023-09-12T12:53:54;21.90;99.90
53802;DHT22;39709;53.334;6.534;2023-09-12T12:56:26;21.70;99.90
53802;DHT22;39709;53.334;6.534;2023-09-12T12:58:54;21.70;99.90
53802;DHT22;39709;53.334;6.534;2023-09-12T13:01:21;21.90;99.90
53802;DHT22;39709;53.334;6.534;2023-09-12T13:03:46;22.10;99.90
53802;DHT22;39709;53.334;6.534;2023-09-12T13:06:12;22.00;99.90
53802;DHT22;39709;53.334;6.534;2023-09-12T13:08:43;22.10;99.90
53802;DHT22;39709;53.334;6.534;2023-09-12T13:11:09;22.10;99.90
53802;DHT22;39709;53.334;6.534;2023-09-12T13:13:35;22.10;99.90
53802;DHT22;39709;53.334;6.534;2023-09-12T13:16:02;22.10;99.90
53802;DHT22;39709;53.334;6.534;2023-09-12T13:18:30;22.10;99.90
53802;DHT22;39709;53.334;6.534;2023-09-12T13:20:56;22.20;99.90
53802;DHT22;39709;53.334;6.534;2023-09-12T13:23:22;22.20;99.90
53802;DHT22;39709;53.334;6.534;2023-09-12T13:25:49;22.10;99.90
53802;DHT22;39709;53.334;6.534;2023-09-12T13:28:15;22.00;99.90
53802;DHT22;39709;53.334;6.534;2023-09-12T13:30:40;22.00;99.90
53802;DHT22;39709;53.334;6.534;2023-09-12T13:33:06;22.10;99.90
53802;DHT22;39709;53.334;6.534;2023-09-12T13:35:32;22.20;99.90
53802;DHT22;39709;53.334;6.534;2023-09-12T13:37:57;22.20;99.90
53802;DHT22;39709;53.334;6.534;2023-09-12T13:40:23;22.20;99.90
53802;DHT22;39709;53.334;6.534;2023-09-12T13:42:48;22.30;99.90
53802;DHT22;39709;53.334;6.534;2023-09-12T13:45:14;22.20;99.90
53802;DHT22;39709;53.334;6.534;2023-09-12T13:47:39;22.20;99.90
53802;DHT22;39709;53.334;6.534;2023-09-12T13:50:06;22.10;99.90
53802;DHT22;39709;53.334;6.534;2023-09-12T13:52:32;22.20;99.90
53802;DHT22;39709;53.334;6.534;2023-09-12T13:54:57;22.20;99.90
53802;DHT22;39709;53.334;6.534;2023-09-12T13:57:23;22.10;99.90
53802;DHT22;39709;53.334;6.534;2023-09-12T13:59:49;22.10;99.90
53802;DHT22;39709;53.334;6.534;2023-09-12T14:02:14;22.00;99.90
53802;DHT22;39709;53.334;6.534;2023-09-12T14:04:40;22.10;99.90
53802;DHT22;39709;53.334;6.534;2023-09-12T14:07:05;22.10;99.90
53802;DHT22;39709;53.334;6.534;2023-09-12T14:09:31;22.20;99.90
53802;DHT22;39709;53.334;6.534;2023-09-12T14:11:57;22.10;99.90
53802;DHT22;39709;53.334;6.534;2023-09-12T14:14:22;22.20;99.90
53802;DHT22;39709;53.334;6.534;2023-09-12T14:16:48;22.30;99.90
53802;DHT22;39709;53.334;6.534;2023-09-12T14:19:13;22.30;99.90
53802;DHT22;39709;53.334;6.534;2023-09-12T14:21:39;22.30;99.90
53802;DHT22;39709;53.334;6.534;2023-09-12T14:24:05;22.30;99.90
53802;DHT22;39709;53.334;6.534;2023-09-12T14:26:30;22.30;99.90
53802;DHT22;39709;53.334;6.534;2023-09-12T14:28:56;22.30;99.90
53802;DHT22;39709;53.334;6.534;2023-09-12T14:31:22;22.30;99.90
53802;DHT22;39709;53.334;6.534;2023-09-12T14:33:48;22.30;99.90
53802;DHT22;39709;53.334;6.534;2023-09-12T14:36:14;22.10;99.90
53802;DHT22;39709;53.334;6.534;2023-09-12T14:38:39;22.00;99.90
53802;DHT22;39709;53.334;6.534;2023-09-12T14:41:05;22.00;99.90
53802;DHT22;39709;53.334;6.534;2023-09-12T14:43:31;22.00;99.90
53802;DHT22;39709;53.334;6.534;2023-09-12T14:45:56;21.90;99.90
53802;DHT22;39709;53.334;6.534;2023-09-12T14:48:22;21.80;99.90
53802;DHT22;39709;53.334;6.534;2023-09-12T14:50:48;21.70;99.90
53802;DHT22;39709;53.334;6.534;2023-09-12T14:53:16;21.80;99.90
53802;DHT22;39709;53.334;6.534;2023-09-12T14:55:42;21.70;99.90
53802;DHT22;39709;53.334;6.534;2023-09-12T14:58:08;21.70;99.90
53802;DHT22;39709;53.334;6.534;2023-09-12T15:00:34;21.70;99.90
53802;DHT22;39709;53.334;6.534;2023-09-12T15:03:00;21.90;99.90
53802;DHT22;39709;53.334;6.534;2023-09-12T15:05:26;22.00;99.90
53802;DHT22;39709;53.334;6.534;2023-09-12T15:07:52;21.80;99.90
53802;DHT22;39709;53.334;6.534;2023-09-12T15:10:18;21.70;99.90
53802;DHT22;39709;53.334;6.534;2023-09-12T15:12:43;21.70;99.90
53802;DHT22;39709;53.334;6.534;2023-09-12T15:15:09;21.60;99.90
53802;DHT22;39709;53.334;6.534;2023-09-12T15:17:34;21.70;99.90
53802;DHT22;39709;53.334;6.534;2023-09-12T15:20:00;21.80;99.90
53802;DHT22;39709;53.334;6.534;2023-09-12T15:22:26;21.70;99.90
53802;DHT22;39709;53.334;6.534;2023-09-12T15:24:52;21.90;99.90
53802;DHT22;39709;53.334;6.534;2023-09-12T15:27:17;21.90;99.90
53802;DHT22;39709;53.334;6.534;2023-09-12T15:29:43;22.00;99.90
53802;DHT22;39709;53.334;6.534;2023-09-12T15:32:08;22.00;99.90
53802;DHT22;39709;53.334;6.534;2023-09-12T15:34:34;21.80;99.90
53802;DHT22;39709;53.334;6.534;2023-09-12T15:37:06;21.70;99.90
53802;DHT22;39709;53.334;6.534;2023-09-12T15:39:33;21.60;99.90